Time;durP1;ratioP1;P1;durP2;ratioP2;P2;SDS_P1;SDS_P2;PMS_P1;PMS_P2;Temp;Humidity;BMP_temperature;BMP_pressure;BME280_temperature;BME280_humidity;BME280_pressure;Samples;Min_cycle;Max_cycle;Signal;HPM_P1;HPM_P2
2023/08/27 00:00:05;;;;;;;8.93;4.82;;;16.30;99.90;;;;;;5081490;28;20075;-69
2023/08/27 00:02:31;;;;;;;8.90;5.20;;;16.30;99.90;;;;;;5079649;28;20012;-69
2023/08/27 00:04:56;;;;;;;6.78;5.00;;;16.30;99.90;;;;;;5084165;28;20028;-69
2023/08/27 00:07:23;;;;;;;8.50;5.10;;;16.30;99.90;;;;;;5083738;28;20463;-68
2023/08/27 00:09:49;;;;;;;6.30;4.60;;;16.30;99.90;;;;;;5090604;28;20028;-69
2023/08/27 00:12:15;;;;;;;10.02;4.40;;;16.30;99.90;;;;;;5091281;28;20024;-69
2023/08/27 00:14:41;;;;;;;9.52;4.20;;;16.40;99.90;;;;;;5078202;28;20012;-69
2023/08/27 00:17:06;;;;;;;8.30;4.10;;;16.40;99.90;;;;;;5090809;28;20024;-69
2023/08/27 00:19:32;;;;;;;9.93;4.00;;;16.40;99.90;;;;;;5090331;28;20043;-69
2023/08/27 00:21:58;;;;;;;8.20;3.70;;;16.30;99.90;;;;;;5080694;28;20017;-68
2023/08/27 00:24:24;;;;;;;10.65;4.35;;;16.30;99.90;;;;;;5074031;28;20016;-69
2023/08/27 00:26:50;;;;;;;11.60;6.00;;;16.30;99.90;;;;;;5087090;28;20020;-69
2023/08/27 00:29:19;;;;;;;20.98;13.45;;;16.30;99.90;;;;;;5083153;28;20525;-69
2023/08/27 00:31:45;;;;;;;31.35;19.13;;;16.30;99.90;;;;;;5079624;28;20016;-69
2023/08/27 00:34:10;;;;;;;33.17;22.55;;;16.30;99.90;;;;;;5088338;28;20055;-69
2023/08/27 00:36:36;;;;;;;39.25;24.35;;;16.30;99.90;;;;;;5090865;28;20380;-69
2023/08/27 00:39:02;;;;;;;39.63;24.98;;;16.30;99.90;;;;;;5090837;28;20024;-69
2023/08/27 00:41:27;;;;;;;37.33;24.00;;;16.30;99.90;;;;;;5090519;28;20106;-69
2023/08/27 00:43:53;;;;;;;34.83;20.42;;;16.30;99.90;;;;;;5090302;28;20016;-69
2023/08/27 00:46:19;;;;;;;28.45;16.77;;;16.30;99.90;;;;;;5078767;28;20387;-69
2023/08/27 00:48:45;;;;;;;20.13;12.13;;;16.30;99.90;;;;;;5082701;28;20020;-69
2023/08/27 00:51:11;;;;;;;16.65;8.98;;;16.30;99.90;;;;;;5070021;28;20028;-68
2023/08/27 00:53:38;;;;;;;14.73;7.53;;;16.30;99.90;;;;;;5084174;28;20552;-69
2023/08/27 00:56:05;;;;;;;10.20;6.13;;;16.30;99.90;;;;;;5076611;28;20084;-69
2023/08/27 00:58:31;;;;;;;10.15;5.57;;;16.20;99.90;;;;;;5090487;28;20437;-69
2023/08/27 01:00:58;;;;;;;9.40;5.80;;;16.20;99.90;;;;;;5087358;28;20091;-69
2023/08/27 01:03:24;;;;;;;9.52;5.35;;;16.20;99.90;;;;;;5090312;28;20091;-69
2023/08/27 01:05:51;;;;;;;9.18;5.30;;;16.20;99.90;;;;;;5080882;28;20344;-69
2023/08/27 01:08:21;;;;;;;9.65;5.30;;;16.20;99.90;;;;;;5073043;28;20060;-69
2023/08/27 01:11:10;;;;;;;8.45;5.40;;;16.20;99.90;;;;;;5073761;28;20027;-69
2023/08/27 01:13:59;;;;;;;10.80;4.90;;;16.20;99.90;;;;;;5070822;28;20028;-69
2023/08/27 01:16:27;;;;;;;7.28;4.88;;;16.20;99.90;;;;;;5075380;28;20032;-69
2023/08/27 01:18:54;;;;;;;10.25;5.20;;;16.20;99.90;;;;;;5088439;28;20430;-69
2023/08/27 01:21:24;;;;;;;10.30;5.13;;;16.20;99.90;;;;;;5090170;28;20091;-69
2023/08/27 01:23:50;;;;;;;9.82;5.32;;;16.20;99.90;;;;;;5086761;28;20023;-69
2023/08/27 01:26:38;;;;;;;9.05;5.20;;;16.20;99.90;;;;;;5078499;28;20023;-69
2023/08/27 01:29:18;;;;;;;11.25;5.72;;;16.20;99.90;;;;;;5079376;28;20018;-69
2023/08/27 01:31:53;;;;;;;10.25;5.28;;;16.20;99.90;;;;;;5085045;28;20024;-69
2023/08/27 01:34:22;;;;;;;6.47;4.53;;;16.20;99.90;;;;;;5089194;28;20471;-69
2023/08/27 01:36:48;;;;;;;14.23;5.20;;;16.10;99.90;;;;;;5076715;28;20020;-69
2023/08/27 01:39:14;;;;;;;11.07;5.80;;;16.20;99.90;;;;;;5086306;28;20034;-69
2023/08/27 01:41:40;;;;;;;10.95;5.75;;;16.20;99.90;;;;;;5074290;28;20367;-68
2023/08/27 01:44:06;;;;;;;12.55;5.43;;;16.10;99.90;;;;;;5089466;28;20018;-69
2023/08/27 01:46:31;;;;;;;11.55;6.20;;;16.10;99.90;;;;;;5093758;28;20023;-69
2023/08/27 01:48:57;;;;;;;12.00;5.63;;;16.20;99.90;;;;;;5093552;28;20583;-69
2023/08/27 01:51:23;;;;;;;11.43;5.53;;;16.20;99.90;;;;;;5079259;28;20481;-69
2023/08/27 01:53:49;;;;;;;12.25;5.80;;;16.10;99.90;;;;;;5084416;28;20071;-69
2023/08/27 01:56:14;;;;;;;9.10;6.07;;;16.10;99.90;;;;;;5087804;28;20057;-69
2023/08/27 01:58:40;;;;;;;11.40;6.20;;;16.10;99.90;;;;;;5086386;28;20415;-69
2023/08/27 02:01:06;;;;;;;10.32;6.07;;;16.10;99.90;;;;;;5084365;28;20042;-69
2023/08/27 02:03:32;;;;;;;13.50;6.20;;;16.10;99.90;;;;;;5084552;28;20017;-69
2023/08/27 02:05:58;;;;;;;11.20;6.30;;;16.10;99.90;;;;;;5083961;28;20100;-71
2023/08/27 02:08:23;;;;;;;16.92;6.22;;;16.10;99.90;;;;;;5091850;28;20028;-69
2023/08/27 02:10:49;;;;;;;11.23;6.25;;;16.20;99.90;;;;;;5082724;28;20024;-69
2023/08/27 02:13:15;;;;;;;12.10;6.50;;;16.20;99.90;;;;;;5086997;28;20069;-69
2023/08/27 02:15:42;;;;;;;14.90;6.57;;;16.20;99.90;;;;;;5073002;28;20036;-69
2023/08/27 02:18:08;;;;;;;12.65;6.65;;;16.20;99.90;;;;;;5076368;28;20456;-69
2023/08/27 02:20:34;;;;;;;9.93;6.05;;;16.20;99.90;;;;;;5085480;28;20053;-69
2023/08/27 02:23:00;;;;;;;13.85;7.15;;;16.20;99.90;;;;;;5074632;28;20032;-69
2023/08/27 02:25:25;;;;;;;13.27;6.38;;;16.30;99.90;;;;;;5088420;28;20022;-69
2023/08/27 02:27:51;;;;;;;13.07;6.90;;;16.30;99.90;;;;;;5090808;28;20047;-69
2023/08/27 02:30:17;;;;;;;17.88;7.15;;;16.30;99.90;;;;;;5077787;28;20491;-69
2023/08/27 02:32:42;;;;;;;13.68;6.65;;;16.30;99.90;;;;;;5074044;28;20029;-69
2023/08/27 02:35:08;;;;;;;14.55;6.72;;;16.30;99.90;;;;;;5085238;28;20070;-69
2023/08/27 02:37:33;;;;;;;14.15;6.63;;;16.30;99.90;;;;;;5080774;28;20032;-69
2023/08/27 02:39:59;;;;;;;14.88;6.55;;;16.30;99.90;;;;;;5092521;28;20020;-69
2023/08/27 02:42:25;;;;;;;14.30;6.03;;;16.30;99.90;;;;;;5092652;28;21114;-69
2023/08/27 02:44:50;;;;;;;14.30;6.28;;;16.30;99.90;;;;;;5092777;28;20024;-69
2023/08/27 02:47:16;;;;;;;13.43;6.15;;;16.30;99.90;;;;;;5092067;28;20017;-69
2023/08/27 02:49:42;;;;;;;13.82;6.80;;;16.30;99.90;;;;;;5084360;28;20052;-69
2023/08/27 02:52:07;;;;;;;19.23;6.85;;;16.30;99.90;;;;;;5085681;28;20027;-69
2023/08/27 02:54:33;;;;;;;14.02;6.50;;;16.30;99.90;;;;;;5092608;28;20110;-69
2023/08/27 02:56:59;;;;;;;14.05;6.15;;;16.30;99.90;;;;;;5092482;28;20505;-69
2023/08/27 02:59:24;;;;;;;12.68;6.03;;;16.30;99.90;;;;;;5078616;28;20047;-69
2023/08/27 03:01:53;;;;;;;11.70;6.20;;;16.30;99.90;;;;;;5092186;28;20364;-69
2023/08/27 03:04:19;;;;;;;19.38;7.13;;;16.30;99.90;;;;;;5086564;28;20068;-69
2023/08/27 03:06:44;;;;;;;18.20;5.68;;;16.30;99.90;;;;;;5091786;28;20411;-69
2023/08/27 03:09:10;;;;;;;12.13;3.15;;;16.30;99.90;;;;;;5084722;28;20490;-68
2023/08/27 03:11:36;;;;;;;13.32;2.55;;;16.20;99.90;;;;;;5092034;28;20069;-68
2023/08/27 03:14:02;;;;;;;12.27;2.72;;;16.10;99.90;;;;;;5092126;28;20052;-68
2023/08/27 03:16:28;;;;;;;12.30;2.42;;;16.00;99.90;;;;;;5077565;28;20477;-69
2023/08/27 03:18:54;;;;;;;9.18;1.85;;;15.80;99.90;;;;;;5090809;28;20020;-69
2023/08/27 03:21:21;;;;;;;10.13;1.55;;;15.70;99.90;;;;;;5091733;28;20485;-69
2023/08/27 03:23:47;;;;;;;6.72;1.50;;;15.70;99.90;;;;;;5078506;28;20016;-69
2023/08/27 03:26:12;;;;;;;4.70;1.10;;;15.70;99.90;;;;;;5091815;28;20030;-69
2023/08/27 03:28:38;;;;;;;4.72;1.23;;;15.60;99.90;;;;;;5091694;28;20085;-69
2023/08/27 03:31:04;;;;;;;5.28;1.10;;;15.60;99.90;;;;;;5081485;28;20024;-69
2023/08/27 03:33:31;;;;;;;3.55;1.00;;;15.50;99.90;;;;;;5080256;28;20044;-69
2023/08/27 03:35:58;;;;;;;3.70;0.88;;;15.50;99.90;;;;;;5085632;28;20016;-69
2023/08/27 03:38:24;;;;;;;2.95;0.93;;;15.50;99.90;;;;;;5084934;28;20024;-69
2023/08/27 03:40:51;;;;;;;1.27;0.80;;;15.50;99.90;;;;;;5085746;28;20077;-69
2023/08/27 03:43:17;;;;;;;4.70;1.13;;;15.50;99.90;;;;;;5091809;28;20091;-69
2023/08/27 03:45:43;;;;;;;2.45;0.90;;;15.40;99.90;;;;;;5086290;28;20024;-69
2023/08/27 03:48:09;;;;;;;4.85;1.00;;;15.40;99.90;;;;;;5081724;28;20031;-69
2023/08/27 03:50:36;;;;;;;3.15;1.20;;;15.50;99.90;;;;;;5091126;28;20028;-69
2023/08/27 03:53:02;;;;;;;3.35;1.00;;;15.50;99.90;;;;;;5091512;28;20016;-69
2023/08/27 03:55:28;;;;;;;3.92;0.70;;;15.50;99.90;;;;;;5076290;28;20021;-69
2023/08/27 03:57:54;;;;;;;2.95;0.90;;;15.60;99.90;;;;;;5077556;28;20096;-69
2023/08/27 04:00:20;;;;;;;1.70;0.80;;;15.60;99.90;;;;;;5078315;28;20033;-69
2023/08/27 04:02:46;;;;;;;1.88;0.80;;;15.60;99.90;;;;;;5089033;28;20020;-69
2023/08/27 04:05:12;;;;;;;4.10;1.00;;;15.50;99.90;;;;;;5090745;28;20114;-69
2023/08/27 04:07:37;;;;;;;5.70;0.88;;;15.50;99.90;;;;;;5089170;28;20443;-69
2023/08/27 04:10:04;;;;;;;1.65;0.85;;;15.50;99.90;;;;;;5075893;28;20024;-69
2023/08/27 04:12:32;;;;;;;4.55;1.00;;;15.40;99.90;;;;;;5079418;28;20099;-69
2023/08/27 04:14:57;;;;;;;4.80;1.05;;;15.40;99.90;;;;;;5087837;28;20118;-69
2023/08/27 04:17:23;;;;;;;3.13;0.90;;;15.40;99.90;;;;;;5071332;28;20107;-69
2023/08/27 04:19:49;;;;;;;2.50;1.00;;;15.40;99.90;;;;;;5074221;28;20220;-69
2023/08/27 04:22:14;;;;;;;5.97;1.10;;;15.40;99.90;;;;;;5084103;28;20376;-69
2023/08/27 04:24:42;;;;;;;2.38;0.90;;;15.40;99.90;;;;;;5083825;28;20535;-69
2023/08/27 04:27:08;;;;;;;8.07;1.17;;;15.40;99.90;;;;;;5090969;28;20483;-69
2023/08/27 04:29:33;;;;;;;3.00;1.35;;;15.40;99.90;;;;;;5090352;28;20047;-69
2023/08/27 04:31:59;;;;;;;4.10;1.20;;;15.40;99.90;;;;;;5090650;28;20020;-69
2023/08/27 04:34:25;;;;;;;3.58;1.20;;;15.40;99.90;;;;;;5090248;28;20020;-69
2023/08/27 04:36:50;;;;;;;4.25;1.20;;;15.30;99.90;;;;;;5089471;28;20020;-69
2023/08/27 04:39:16;;;;;;;5.90;1.63;;;15.40;99.90;;;;;;5082457;28;20497;-69
2023/08/27 04:41:42;;;;;;;4.22;1.30;;;15.40;99.90;;;;;;5089501;28;20020;-69
2023/08/27 04:44:07;;;;;;;6.30;1.20;;;15.40;99.90;;;;;;5089799;28;20022;-69
2023/08/27 04:46:33;;;;;;;7.20;1.50;;;15.40;99.90;;;;;;5090557;28;20020;-69
2023/08/27 04:48:59;;;;;;;3.33;1.33;;;15.50;99.90;;;;;;5090280;28;20036;-69
2023/08/27 04:51:27;;;;;;;4.25;1.27;;;15.40;99.90;;;;;;5090610;28;20020;-69
2023/08/27 04:53:52;;;;;;;2.75;1.27;;;15.40;99.90;;;;;;5088348;28;20027;-69
2023/08/27 04:56:18;;;;;;;2.55;1.30;;;15.50;99.90;;;;;;5090830;28;20391;-69
2023/08/27 04:58:44;;;;;;;4.30;1.27;;;15.50;99.90;;;;;;5086345;28;20127;-69
2023/08/27 05:01:09;;;;;;;5.63;1.48;;;15.50;99.90;;;;;;5089902;28;20055;-69
2023/08/27 05:03:35;;;;;;;3.25;1.33;;;15.50;99.90;;;;;;5088133;28;20031;-69
2023/08/27 05:06:01;;;;;;;5.38;1.70;;;15.50;99.90;;;;;;5085987;28;20501;-69
2023/08/27 05:08:26;;;;;;;6.78;1.52;;;15.40;99.90;;;;;;5089958;28;20024;-69
2023/08/27 05:10:52;;;;;;;5.10;1.60;;;15.40;99.90;;;;;;5090491;28;20564;-69
2023/08/27 05:13:19;;;;;;;2.92;1.30;;;15.40;99.90;;;;;;5087085;28;20426;-69
2023/08/27 05:15:44;;;;;;;5.15;1.85;;;15.40;99.90;;;;;;5077456;28;20021;-70
2023/08/27 05:18:10;;;;;;;2.72;1.20;;;15.40;99.90;;;;;;5088772;28;20487;-70
2023/08/27 05:20:37;;;;;;;5.10;1.63;;;15.50;99.90;;;;;;5076390;28;20409;-69
2023/08/27 05:23:03;;;;;;;2.88;1.30;;;15.40;99.90;;;;;;5089536;28;20028;-69
2023/08/27 05:25:29;;;;;;;5.53;1.23;;;15.50;99.90;;;;;;5094103;28;20506;-69
2023/08/27 05:27:55;;;;;;;4.60;1.27;;;15.50;99.90;;;;;;5093937;28;20099;-70
2023/08/27 05:30:20;;;;;;;3.50;1.27;;;15.50;99.90;;;;;;5094287;28;20596;-70
2023/08/27 05:32:46;;;;;;;4.45;1.25;;;15.40;99.90;;;;;;5094213;28;20041;-69
2023/08/27 05:35:12;;;;;;;5.57;1.70;;;15.50;99.90;;;;;;5093800;28;20093;-70
2023/08/27 05:37:38;;;;;;;6.25;1.60;;;15.50;99.90;;;;;;5086205;28;20035;-70
2023/08/27 05:40:05;;;;;;;3.58;1.40;;;15.50;99.90;;;;;;5087960;28;20030;-69
2023/08/27 05:42:32;;;;;;;3.22;1.20;;;15.50;99.90;;;;;;5087471;28;20020;-69
2023/08/27 05:44:58;;;;;;;5.20;1.38;;;15.50;99.90;;;;;;5086534;28;20090;-70
2023/08/27 05:47:23;;;;;;;5.72;1.70;;;15.60;99.90;;;;;;5092180;28;20070;-70
2023/08/27 05:49:49;;;;;;;3.30;1.50;;;15.60;99.90;;;;;;5092633;28;20021;-70
2023/08/27 05:52:14;;;;;;;3.10;1.50;;;15.70;99.90;;;;;;5091360;28;20020;-70
2023/08/27 05:54:40;;;;;;;3.70;1.52;;;15.70;99.90;;;;;;5081359;28;20024;-69
2023/08/27 05:57:06;;;;;;;4.32;1.90;;;15.70;99.90;;;;;;5093601;28;20040;-69
2023/08/27 05:59:32;;;;;;;8.68;2.30;;;15.80;99.90;;;;;;5086148;28;20039;-69
2023/08/27 06:01:58;;;;;;;7.53;2.53;;;15.80;99.90;;;;;;5089660;28;20475;-69
2023/08/27 06:04:24;;;;;;;8.10;3.13;;;15.80;99.90;;;;;;5093377;28;20031;-69
2023/08/27 06:06:50;;;;;;;8.68;2.75;;;15.90;99.90;;;;;;5085308;28;20475;-69
2023/08/27 06:09:16;;;;;;;9.05;3.92;;;15.90;99.90;;;;;;5088673;28;20099;-69
2023/08/27 06:11:42;;;;;;;12.77;4.55;;;15.90;99.90;;;;;;5093069;28;20024;-69
2023/08/27 06:14:08;;;;;;;9.18;4.00;;;16.00;99.90;;;;;;5090447;28;20023;-69
2023/08/27 06:16:33;;;;;;;10.23;4.30;;;16.10;99.90;;;;;;5083415;28;20020;-69
2023/08/27 06:18:59;;;;;;;14.15;4.50;;;16.10;99.90;;;;;;5079248;28;20068;-69
2023/08/27 06:21:25;;;;;;;9.05;4.43;;;16.10;99.90;;;;;;5082944;28;20022;-69
2023/08/27 06:23:51;;;;;;;9.77;5.95;;;16.20;99.90;;;;;;5087680;28;20024;-69
2023/08/27 06:26:17;;;;;;;13.48;6.80;;;16.30;99.90;;;;;;5074988;28;20111;-69
2023/08/27 06:28:42;;;;;;;17.50;8.68;;;16.40;99.90;;;;;;5089740;28;20081;-69
2023/08/27 06:31:08;;;;;;;15.82;8.90;;;16.40;99.90;;;;;;5091365;28;20487;-69
2023/08/27 06:33:33;;;;;;;15.23;9.80;;;16.50;99.90;;;;;;5092306;28;20028;-70
2023/08/27 06:35:59;;;;;;;14.43;9.98;;;16.60;99.90;;;;;;5093012;28;20723;-69
2023/08/27 06:38:25;;;;;;;21.05;11.43;;;16.60;99.90;;;;;;5083141;28;20186;-69
2023/08/27 06:40:50;;;;;;;19.45;12.45;;;16.60;99.90;;;;;;5088881;28;20016;-69
2023/08/27 06:43:16;;;;;;;20.70;12.68;;;16.70;99.90;;;;;;5079911;28;20027;-69
2023/08/27 06:45:41;;;;;;;23.83;13.60;;;16.70;99.90;;;;;;5080172;28;20020;-69
2023/08/27 06:48:09;;;;;;;19.25;12.02;;;16.70;99.90;;;;;;5088202;28;20020;-70
2023/08/27 06:50:35;;;;;;;16.88;11.18;;;16.70;99.90;;;;;;5091438;28;20479;-69
2023/08/27 06:53:01;;;;;;;21.42;10.77;;;16.70;99.90;;;;;;5080821;28;20028;-69
2023/08/27 06:55:27;;;;;;;17.33;9.27;;;16.60;99.90;;;;;;5089375;28;20016;-70
2023/08/27 06:57:53;;;;;;;14.60;8.95;;;16.60;99.90;;;;;;5090551;28;20071;-70
2023/08/27 07:00:19;;;;;;;12.20;7.57;;;16.60;99.90;;;;;;5092069;28;20024;-70
2023/08/27 07:02:44;;;;;;;14.30;6.47;;;16.60;99.90;;;;;;5092300;28;20039;-70
2023/08/27 07:05:10;;;;;;;10.38;5.50;;;16.60;99.90;;;;;;5092313;28;20024;-71
2023/08/27 07:07:40;;;;;;;8.32;4.10;;;16.60;99.90;;;;;;5088384;28;20038;-71
2023/08/27 07:10:06;;;;;;;5.90;3.70;;;16.50;99.90;;;;;;5091507;28;20028;-69
2023/08/27 07:12:33;;;;;;;5.72;2.75;;;16.40;99.90;;;;;;5087994;28;20009;-69
2023/08/27 07:15:02;;;;;;;8.77;2.72;;;16.20;99.90;;;;;;5085339;28;20028;-69
2023/08/27 07:17:28;;;;;;;4.28;2.58;;;16.20;99.90;;;;;;5081534;28;20095;-69
2023/08/27 07:19:54;;;;;;;6.90;2.40;;;16.20;99.90;;;;;;5092321;28;20103;-69
2023/08/27 07:22:20;;;;;;;6.82;2.10;;;16.10;99.90;;;;;;5082153;28;20028;-69
2023/08/27 07:24:46;;;;;;;4.97;2.38;;;16.20;99.90;;;;;;5084436;28;20028;-69
2023/08/27 07:27:12;;;;;;;5.50;2.53;;;16.20;99.90;;;;;;5090051;28;20028;-69
2023/08/27 07:29:37;;;;;;;4.75;2.03;;;16.30;99.90;;;;;;5080209;28;20205;-69
2023/08/27 07:32:04;;;;;;;6.03;1.95;;;16.40;99.90;;;;;;5089385;28;20013;-69
2023/08/27 07:34:32;;;;;;;5.38;1.92;;;16.50;99.90;;;;;;5091697;28;20371;-69
2023/08/27 07:36:58;;;;;;;4.63;1.60;;;16.50;99.90;;;;;;5090375;28;20455;-69
2023/08/27 07:39:23;;;;;;;2.63;1.33;;;16.50;99.90;;;;;;5090071;28;20054;-69
2023/08/27 07:41:49;;;;;;;3.70;1.60;;;16.50;99.90;;;;;;5090949;28;20066;-69
2023/08/27 07:44:16;;;;;;;1.98;1.05;;;16.60;99.90;;;;;;5085244;28;20352;-69
2023/08/27 07:46:42;;;;;;;4.25;1.30;;;16.60;99.90;;;;;;5091075;28;20028;-69
2023/08/27 07:49:08;;;;;;;3.35;1.48;;;16.60;99.90;;;;;;5091202;28;20016;-69
2023/08/27 07:51:34;;;;;;;3.80;1.35;;;16.60;99.90;;;;;;5091678;28;20024;-70
2023/08/27 07:54:00;;;;;;;2.90;1.30;;;16.70;99.90;;;;;;5075239;28;20073;-69
2023/08/27 07:56:25;;;;;;;5.10;1.50;;;16.70;99.90;;;;;;5072782;28;20020;-70
2023/08/27 07:58:51;;;;;;;3.00;1.50;;;16.60;99.90;;;;;;5077625;28;20495;-69
2023/08/27 08:01:17;;;;;;;3.53;1.45;;;16.60;99.90;;;;;;5090259;28;20020;-69
2023/08/27 08:03:43;;;;;;;2.65;1.40;;;16.60;99.90;;;;;;5081125;28;20023;-69
2023/08/27 08:06:09;;;;;;;4.43;1.52;;;16.50;99.90;;;;;;5090101;28;20032;-69
2023/08/27 08:08:35;;;;;;;2.15;1.40;;;16.50;99.90;;;;;;5090061;28;20096;-69
2023/08/27 08:11:01;;;;;;;3.33;1.48;;;16.50;99.90;;;;;;5090719;28;20028;-69
2023/08/27 08:13:27;;;;;;;5.82;1.73;;;16.40;99.90;;;;;;5084930;28;20016;-74
2023/08/27 08:15:53;;;;;;;4.55;1.50;;;16.40;99.90;;;;;;5083160;28;20028;-74
2023/08/27 08:18:18;;;;;;;10.68;2.05;;;16.40;99.90;;;;;;5076592;28;20031;-69
2023/08/27 08:20:44;;;;;;;35.83;6.53;;;16.40;99.90;;;;;;5082969;28;20028;-69
2023/08/27 08:23:10;;;;;;;3.85;1.48;;;16.40;99.90;;;;;;5080236;28;20530;-69
2023/08/27 08:25:37;;;;;;;2.25;1.00;;;16.40;99.90;;;;;;5082560;28;20016;-73
2023/08/27 08:28:03;;;;;;;2.75;0.90;;;16.40;99.90;;;;;;5082122;28;20024;-70
2023/08/27 08:30:29;;;;;;;2.75;1.00;;;16.40;99.90;;;;;;5085310;28;20703;-70
2023/08/27 08:32:55;;;;;;;3.08;1.00;;;16.40;99.90;;;;;;5085440;28;20016;-72
2023/08/27 08:35:21;;;;;;;16.77;2.42;;;16.30;99.90;;;;;;5084925;28;20028;-70
2023/08/27 08:37:46;;;;;;;9.48;1.58;;;16.30;99.90;;;;;;5088017;28;20590;-70
2023/08/27 08:40:14;;;;;;;4.32;1.00;;;16.40;99.90;;;;;;5086039;28;20017;-71
2023/08/27 08:42:58;;;;;;;6.55;1.52;;;16.50;99.90;;;;;;5075420;28;20687;-70
2023/08/27 08:45:37;;;;;;;1.40;0.75;;;16.70;99.90;;;;;;5086858;28;20012;-70
2023/08/27 08:48:05;;;;;;;1.65;0.82;;;16.80;99.90;;;;;;5073256;28;20025;-70
2023/08/27 08:50:35;;;;;;;3.55;1.08;;;16.90;99.90;;;;;;5086069;28;20060;-70
2023/08/27 08:53:14;;;;;;;2.88;0.80;;;16.90;99.90;;;;;;5092094;28;20040;-70
2023/08/27 08:55:45;;;;;;;6.82;1.52;;;16.90;99.90;;;;;;5086175;28;20047;-74
2023/08/27 08:58:12;;;;;;;1.63;1.00;;;16.90;99.90;;;;;;5090629;28;20162;-70
2023/08/27 09:00:39;;;;;;;2.72;1.00;;;16.80;99.90;;;;;;5085725;28;20044;-69
2023/08/27 09:03:05;;;;;;;4.35;1.10;;;16.80;99.90;;;;;;5088459;28;20387;-69
2023/08/27 09:05:36;;;;;;;2.35;1.05;;;16.80;99.90;;;;;;5085093;28;20021;-69
2023/08/27 09:08:04;;;;;;;4.90;1.30;;;16.80;99.90;;;;;;5086250;28;20532;-69
2023/08/27 09:10:31;;;;;;;3.70;1.40;;;16.80;99.90;;;;;;5078900;28;20488;-71
2023/08/27 09:12:58;;;;;;;4.75;1.27;;;16.70;99.90;;;;;;5086510;28;20020;-70
2023/08/27 09:15:24;;;;;;;1.80;0.93;;;16.60;99.90;;;;;;5087281;28;20020;-70
2023/08/27 09:17:50;;;;;;;4.80;1.40;;;16.50;99.90;;;;;;5090989;28;20458;-69
2023/08/27 09:20:16;;;;;;;1.80;0.95;;;16.40;99.90;;;;;;5081387;28;20032;-70
2023/08/27 09:22:42;;;;;;;2.45;1.00;;;16.30;99.90;;;;;;5071146;28;20016;-69
2023/08/27 09:25:09;;;;;;;4.40;0.90;;;16.20;99.90;;;;;;5074238;28;20028;-70
2023/08/27 09:27:35;;;;;;;3.20;1.00;;;16.10;99.90;;;;;;5090195;28;20024;-75
2023/08/27 09:30:05;;;;;;;1.48;0.88;;;15.90;99.90;;;;;;5074263;28;20066;-69
2023/08/27 09:32:31;;;;;;;3.05;0.90;;;15.80;99.90;;;;;;5074799;28;20034;-69
2023/08/27 09:35:01;;;;;;;1.92;1.00;;;15.70;99.90;;;;;;5080150;28;20461;-69
2023/08/27 09:37:28;;;;;;;3.95;1.20;;;15.60;99.90;;;;;;5085764;28;20055;-70
2023/08/27 09:39:54;;;;;;;2.92;1.02;;;15.50;99.90;;;;;;5090208;28;20021;-73
2023/08/27 09:42:21;;;;;;;3.55;1.20;;;15.40;99.90;;;;;;5083307;28;20039;-72
2023/08/27 09:44:54;;;;;;;2.13;1.30;;;15.50;99.90;;;;;;5077828;28;20514;-68
2023/08/27 09:47:33;;;;;;;1.70;0.90;;;15.50;99.90;;;;;;5084216;28;20029;-68
2023/08/27 09:50:02;;;;;;;5.03;1.40;;;15.40;99.90;;;;;;5090629;28;20024;-68
2023/08/27 09:52:28;;;;;;;3.70;1.17;;;15.40;99.90;;;;;;5087202;28;20023;-68
2023/08/27 09:54:54;;;;;;;1.63;1.00;;;15.30;99.90;;;;;;5082352;28;20009;-68
2023/08/27 09:57:20;;;;;;;4.00;1.02;;;15.20;99.90;;;;;;5083721;28;20063;-71
2023/08/27 09:59:47;;;;;;;2.20;1.10;;;15.20;99.90;;;;;;5074721;28;20041;-70
2023/08/27 10:02:13;;;;;;;3.40;1.40;;;15.20;99.90;;;;;;5084441;28;20470;-71
2023/08/27 10:04:49;;;;;;;4.10;1.20;;;15.20;99.90;;;;;;5085451;28;20105;-68
2023/08/27 10:07:16;;;;;;;4.68;1.70;;;15.20;99.90;;;;;;5087915;28;20426;-68
2023/08/27 10:09:42;;;;;;;4.85;1.60;;;15.20;99.90;;;;;;5093650;28;20035;-68
2023/08/27 10:12:10;;;;;;;2.40;1.30;;;15.30;99.90;;;;;;5083237;28;20048;-68
2023/08/27 10:14:40;;;;;;;3.22;1.40;;;15.40;99.90;;;;;;5089091;28;20024;-73
2023/08/27 10:17:06;;;;;;;4.60;1.52;;;15.40;99.90;;;;;;5080930;28;20024;-73
2023/08/27 10:19:35;;;;;;;6.07;1.55;;;15.50;99.90;;;;;;5082629;28;20020;-73
2023/08/27 10:22:01;;;;;;;5.68;2.08;;;15.60;99.90;;;;;;5087090;28;20046;-73
2023/08/27 10:24:28;;;;;;;3.88;1.52;;;15.60;99.90;;;;;;5074981;28;20028;-73
2023/08/27 10:26:57;;;;;;;4.85;1.80;;;15.60;99.90;;;;;;5088373;28;20024;-69
2023/08/27 10:29:24;;;;;;;4.03;1.70;;;15.70;99.90;;;;;;5083145;28;20468;-69
2023/08/27 10:31:51;;;;;;;2.78;1.40;;;15.80;99.90;;;;;;5089596;28;20024;-69
2023/08/27 10:34:17;;;;;;;6.35;1.92;;;15.80;99.90;;;;;;5081219;28;20440;-68
2023/08/27 10:36:44;;;;;;;7.32;1.67;;;15.90;99.90;;;;;;5073672;28;20025;-69
2023/08/27 10:39:13;;;;;;;5.10;1.50;;;16.00;99.90;;;;;;5074658;28;20024;-70
2023/08/27 10:41:39;;;;;;;6.80;1.30;;;16.10;99.90;;;;;;5091658;28;20032;-69
2023/08/27 10:44:08;;;;;;;9.35;1.40;;;16.20;99.90;;;;;;5079799;28;20023;-68
2023/08/27 10:46:34;;;;;;;7.10;1.73;;;16.20;99.90;;;;;;5094220;28;20085;-68
2023/08/27 10:49:00;;;;;;;11.20;1.80;;;16.30;99.90;;;;;;5089268;28;20032;-69
2023/08/27 10:51:32;;;;;;;5.78;1.60;;;16.40;99.90;;;;;;5083724;28;20012;-71
2023/08/27 10:54:00;;;;;;;8.75;1.40;;;16.50;99.90;;;;;;5087706;28;20044;-71
2023/08/27 10:56:38;;;;;;;9.27;1.40;;;16.70;99.90;;;;;;5087691;28;20429;-72
2023/08/27 10:59:09;;;;;;;2.75;1.05;;;16.80;99.90;;;;;;5078228;28;20366;-72
2023/08/27 11:01:36;;;;;;;9.18;1.38;;;16.90;99.90;;;;;;5092181;28;20031;-71
2023/08/27 11:04:06;;;;;;;6.30;1.48;;;16.90;99.90;;;;;;5080647;28;20025;-71
2023/08/27 11:06:46;;;;;;;6.15;1.35;;;17.00;99.90;;;;;;5079439;28;20024;-71
2023/08/27 11:09:23;;;;;;;6.03;1.30;;;17.10;99.90;;;;;;5082713;28;20028;-71
2023/08/27 11:11:59;;;;;;;5.00;1.50;;;17.20;99.90;;;;;;5084511;28;20064;-72
2023/08/27 11:14:25;;;;;;;5.15;1.20;;;17.40;99.90;;;;;;5089218;28;20016;-70
2023/08/27 11:17:03;;;;;;;11.75;1.35;;;17.50;99.90;;;;;;5085360;28;20027;-69
2023/08/27 11:19:35;;;;;;;4.25;1.25;;;17.60;99.90;;;;;;5080434;28;20021;-71
2023/08/27 11:22:29;;;;;;;1.88;0.80;;;17.70;99.90;;;;;;5085130;28;20081;-72
2023/08/27 11:24:56;;;;;;;3.60;0.77;;;17.80;99.90;;;;;;5076961;28;20055;-73
2023/08/27 11:27:25;;;;;;;4.38;1.13;;;17.90;99.90;;;;;;5090002;28;20651;-73
2023/08/27 11:29:52;;;;;;;2.28;0.85;;;18.10;99.90;;;;;;5090827;28;20025;-73
2023/08/27 11:32:22;;;;;;;6.72;1.13;;;18.10;99.90;;;;;;5090982;28;20015;-73
2023/08/27 11:34:52;;;;;;;9.23;3.83;;;18.20;99.90;;;;;;5091615;28;20071;-74
2023/08/27 11:37:20;;;;;;;8.13;3.78;;;18.30;99.90;;;;;;5082790;28;20074;-74
2023/08/27 11:39:46;;;;;;;7.97;1.73;;;18.50;99.90;;;;;;5091819;28;20036;-73
2023/08/27 11:42:14;;;;;;;6.90;2.05;;;18.80;99.90;;;;;;5090527;28;20020;-73
2023/08/27 11:44:49;;;;;;;6.10;1.27;;;19.00;99.90;;;;;;5087753;28;20032;-73
2023/08/27 11:47:14;;;;;;;2.23;1.00;;;19.20;99.90;;;;;;5092392;28;20028;-73
2023/08/27 11:49:40;;;;;;;2.80;1.00;;;19.50;99.90;;;;;;5091760;28;20081;-74
2023/08/27 11:52:06;;;;;;;5.70;1.10;;;19.70;99.90;;;;;;5091121;28;20054;-74
2023/08/27 11:54:34;;;;;;;4.50;1.23;;;20.00;99.90;;;;;;5089075;28;20027;-73
2023/08/27 11:57:02;;;;;;;3.83;1.25;;;20.20;99.90;;;;;;5090166;28;20154;-73
2023/08/27 11:59:28;;;;;;;3.20;1.10;;;20.40;99.90;;;;;;5089878;28;20360;-69
2023/08/27 12:01:59;;;;;;;3.72;1.20;;;20.30;99.90;;;;;;5087887;28;20030;-69
2023/08/27 12:04:28;;;;;;;12.05;2.85;;;20.20;99.90;;;;;;5090663;28;20039;-69
2023/08/27 12:06:58;;;;;;;6.95;2.28;;;19.80;99.90;;;;;;5086726;28;20085;-70
2023/08/27 12:09:26;;;;;;;5.30;1.80;;;19.30;99.90;;;;;;5087399;28;20102;-69
2023/08/27 12:11:53;;;;;;;5.40;1.58;;;18.90;99.90;;;;;;5091225;28;20084;-69
2023/08/27 12:14:26;;;;;;;5.22;1.70;;;18.60;99.90;;;;;;5086303;28;20036;-69
2023/08/27 12:16:53;;;;;;;3.38;1.80;;;18.30;99.90;;;;;;5088682;28;20100;-69
2023/08/27 12:19:22;;;;;;;4.05;1.92;;;18.10;99.90;;;;;;5090763;28;20031;-69
2023/08/27 12:21:50;;;;;;;4.57;2.22;;;18.00;99.90;;;;;;5088666;28;20027;-69
2023/08/27 12:24:45;;;;;;;4.60;2.10;;;17.80;99.90;;;;;;5086770;28;20386;-69
2023/08/27 12:27:15;;;;;;;5.22;2.00;;;17.80;99.90;;;;;;5084266;28;20390;-69
2023/08/27 12:29:46;;;;;;;3.38;1.80;;;17.70;99.90;;;;;;5090083;28;20012;-68
2023/08/27 12:32:16;;;;;;;5.40;2.10;;;17.60;99.90;;;;;;5089793;28;20027;-69
2023/08/27 12:34:47;;;;;;;2.95;1.67;;;17.50;99.90;;;;;;5089243;28;20020;-68
2023/08/27 12:37:15;;;;;;;2.65;1.75;;;17.40;99.90;;;;;;5078609;28;20043;-69
2023/08/27 12:39:42;;;;;;;4.50;1.90;;;17.30;99.90;;;;;;5083660;28;20039;-69
2023/08/27 12:42:09;;;;;;;3.35;1.52;;;17.40;99.90;;;;;;5088670;28;20032;-68